sensor_id;sensor_type;location;lat;lon;timestamp;temperature;humidity
83660;SHT30;73632;50.808;3.422;2024-03-06T00:02:10;7.13;85.31
83660;SHT30;73632;50.808;3.422;2024-03-06T00:04:35;7.03;85.26
83660;SHT30;73632;50.808;3.422;2024-03-06T00:07:01;7.04;85.39
83660;SHT30;73632;50.808;3.422;2024-03-06T00:09:27;6.99;85.33
83660;SHT30;73632;50.808;3.422;2024-03-06T00:11:56;6.89;85.75
83660;SHT30;73632;50.808;3.422;2024-03-06T00:14:22;6.84;86.16
83660;SHT30;73632;50.808;3.422;2024-03-06T00:16:48;6.76;86.75
83660;SHT30;73632;50.808;3.422;2024-03-06T00:19:17;6.77;86.92
83660;SHT30;73632;50.808;3.422;2024-03-06T00:21:43;6.80;87.20
83660;SHT30;73632;50.808;3.422;2024-03-06T00:24:09;6.75;86.97
83660;SHT30;73632;50.808;3.422;2024-03-06T00:26:36;6.86;86.32
83660;SHT30;73632;50.808;3.422;2024-03-06T00:29:02;6.83;86.30
83660;SHT30;73632;50.808;3.422;2024-03-06T00:31:27;6.90;85.89
83660;SHT30;73632;50.808;3.422;2024-03-06T00:33:52;6.81;86.41
83660;SHT30;73632;50.808;3.422;2024-03-06T00:36:18;6.84;86.45
83660;SHT30;73632;50.808;3.422;2024-03-06T00:38:43;6.97;85.87
83660;SHT30;73632;50.808;3.422;2024-03-06T00:41:09;6.91;85.72
83660;SHT30;73632;50.808;3.422;2024-03-06T00:43:34;6.90;85.97
83660;SHT30;73632;50.808;3.422;2024-03-06T00:45:59;6.91;85.89
83660;SHT30;73632;50.808;3.422;2024-03-06T00:48:25;6.86;86.14
83660;SHT30;73632;50.808;3.422;2024-03-06T00:50:50;6.80;86.61
83660;SHT30;73632;50.808;3.422;2024-03-06T00:53:16;6.72;86.51
83660;SHT30;73632;50.808;3.422;2024-03-06T00:55:41;6.79;86.48
83660;SHT30;73632;50.808;3.422;2024-03-06T00:58:07;6.84;86.09
83660;SHT30;73632;50.808;3.422;2024-03-06T01:00:32;6.80;86.39
83660;SHT30;73632;50.808;3.422;2024-03-06T01:02:59;6.75;86.48
83660;SHT30;73632;50.808;3.422;2024-03-06T01:05:24;6.80;86.31
83660;SHT30;73632;50.808;3.422;2024-03-06T01:07:49;6.80;86.27
83660;SHT30;73632;50.808;3.422;2024-03-06T01:10:15;6.80;86.17
83660;SHT30;73632;50.808;3.422;2024-03-06T01:12:40;6.79;86.29
83660;SHT30;73632;50.808;3.422;2024-03-06T01:15:06;6.79;86.30
83660;SHT30;73632;50.808;3.422;2024-03-06T01:17:33;6.79;86.39
83660;SHT30;73632;50.808;3.422;2024-03-06T01:19:58;6.68;86.66
83660;SHT30;73632;50.808;3.422;2024-03-06T01:22:25;6.62;87.01
83660;SHT30;73632;50.808;3.422;2024-03-06T01:24:50;6.75;86.86
83660;SHT30;73632;50.808;3.422;2024-03-06T01:27:16;6.73;86.44
83660;SHT30;73632;50.808;3.422;2024-03-06T01:29:41;6.73;86.74
83660;SHT30;73632;50.808;3.422;2024-03-06T01:32:07;6.72;86.59
83660;SHT30;73632;50.808;3.422;2024-03-06T01:34:32;6.73;86.41
83660;SHT30;73632;50.808;3.422;2024-03-06T01:36:58;6.69;86.64
83660;SHT30;73632;50.808;3.422;2024-03-06T01:39:23;6.68;86.98
83660;SHT30;73632;50.808;3.422;2024-03-06T01:41:50;6.66;87.06
83660;SHT30;73632;50.808;3.422;2024-03-06T01:44:17;6.57;87.47
83660;SHT30;73632;50.808;3.422;2024-03-06T01:46:46;6.70;86.34
83660;SHT30;73632;50.808;3.422;2024-03-06T01:49:12;6.73;86.28
83660;SHT30;73632;50.808;3.422;2024-03-06T01:51:40;6.59;86.85
83660;SHT30;73632;50.808;3.422;2024-03-06T01:54:06;6.62;86.73
83660;SHT30;73632;50.808;3.422;2024-03-06T01:56:33;6.57;87.20
83660;SHT30;73632;50.808;3.422;2024-03-06T01:59:00;6.57;87.16
83660;SHT30;73632;50.808;3.422;2024-03-06T02:01:27;6.53;87.40
83660;SHT30;73632;50.808;3.422;2024-03-06T02:03:53;6.53;87.25
83660;SHT30;73632;50.808;3.422;2024-03-06T02:06:19;6.50;87.37
83660;SHT30;73632;50.808;3.422;2024-03-06T02:08:48;6.54;87.20
83660;SHT30;73632;50.808;3.422;2024-03-06T02:11:14;6.62;87.10
83660;SHT30;73632;50.808;3.422;2024-03-06T02:13:42;6.60;86.65
83660;SHT30;73632;50.808;3.422;2024-03-06T02:16:09;6.56;87.30
83660;SHT30;73632;50.808;3.422;2024-03-06T02:18:34;6.54;87.26
83660;SHT30;73632;50.808;3.422;2024-03-06T02:21:00;6.52;87.37
83660;SHT30;73632;50.808;3.422;2024-03-06T02:23:25;6.50;87.26
83660;SHT30;73632;50.808;3.422;2024-03-06T02:25:50;6.48;87.40
83660;SHT30;73632;50.808;3.422;2024-03-06T02:28:16;6.68;86.97
83660;SHT30;73632;50.808;3.422;2024-03-06T02:30:42;6.60;86.76
83660;SHT30;73632;50.808;3.422;2024-03-06T02:33:08;6.57;86.88
83660;SHT30;73632;50.808;3.422;2024-03-06T02:35:37;6.50;87.33
83660;SHT30;73632;50.808;3.422;2024-03-06T02:38:04;6.62;87.33
83660;SHT30;73632;50.808;3.422;2024-03-06T02:40:32;6.63;86.82
83660;SHT30;73632;50.808;3.422;2024-03-06T02:42:58;6.57;86.84
83660;SHT30;73632;50.808;3.422;2024-03-06T02:45:23;6.56;87.10
83660;SHT30;73632;50.808;3.422;2024-03-06T02:47:49;6.53;87.10
83660;SHT30;73632;50.808;3.422;2024-03-06T02:50:14;6.45;87.55
83660;SHT30;73632;50.808;3.422;2024-03-06T02:52:41;6.45;87.89
83660;SHT30;73632;50.808;3.422;2024-03-06T02:55:07;6.46;87.73
83660;SHT30;73632;50.808;3.422;2024-03-06T02:57:32;6.54;87.16
83660;SHT30;73632;50.808;3.422;2024-03-06T02:59:58;6.54;87.03
83660;SHT30;73632;50.808;3.422;2024-03-06T03:02:24;6.60;86.78
83660;SHT30;73632;50.808;3.422;2024-03-06T03:04:50;6.59;86.56
83660;SHT30;73632;50.808;3.422;2024-03-06T03:07:17;6.54;86.80
83660;SHT30;73632;50.808;3.422;2024-03-06T03:09:43;6.65;86.82
83660;SHT30;73632;50.808;3.422;2024-03-06T03:12:08;6.56;86.69
83660;SHT30;73632;50.808;3.422;2024-03-06T03:14:36;6.43;87.17
83660;SHT30;73632;50.808;3.422;2024-03-06T03:17:02;6.43;87.61
83660;SHT30;73632;50.808;3.422;2024-03-06T03:19:28;6.36;87.88
83660;SHT30;73632;50.808;3.422;2024-03-06T03:21:54;6.29;88.09
83660;SHT30;73632;50.808;3.422;2024-03-06T03:24:20;6.32;88.01
83660;SHT30;73632;50.808;3.422;2024-03-06T03:26:46;6.30;87.93
83660;SHT30;73632;50.808;3.422;2024-03-06T03:29:12;6.43;87.71
83660;SHT30;73632;50.808;3.422;2024-03-06T03:31:37;6.43;87.37
83660;SHT30;73632;50.808;3.422;2024-03-06T03:34:05;6.33;87.61
83660;SHT30;73632;50.808;3.422;2024-03-06T03:36:30;6.38;87.83
83660;SHT30;73632;50.808;3.422;2024-03-06T03:38:55;6.30;87.54
83660;SHT30;73632;50.808;3.422;2024-03-06T03:41:21;6.28;87.89
83660;SHT30;73632;50.808;3.422;2024-03-06T03:43:46;6.26;88.00
83660;SHT30;73632;50.808;3.422;2024-03-06T03:46:12;6.24;88.16
83660;SHT30;73632;50.808;3.422;2024-03-06T03:48:39;6.18;88.22
83660;SHT30;73632;50.808;3.422;2024-03-06T03:51:05;6.18;88.29
83660;SHT30;73632;50.808;3.422;2024-03-06T03:53:35;6.15;87.86
83660;SHT30;73632;50.808;3.422;2024-03-06T03:56:00;6.12;87.68
83660;SHT30;73632;50.808;3.422;2024-03-06T03:58:26;6.14;87.65
83660;SHT30;73632;50.808;3.422;2024-03-06T04:00:51;6.09;87.74
83660;SHT30;73632;50.808;3.422;2024-03-06T04:03:19;6.09;87.67
83660;SHT30;73632;50.808;3.422;2024-03-06T04:05:46;6.11;87.91
83660;SHT30;73632;50.808;3.422;2024-03-06T04:08:12;6.06;87.84
83660;SHT30;73632;50.808;3.422;2024-03-06T04:10:38;6.01;88.13
83660;SHT30;73632;50.808;3.422;2024-03-06T04:13:03;6.01;87.98
83660;SHT30;73632;50.808;3.422;2024-03-06T04:15:29;5.95;88.26
83660;SHT30;73632;50.808;3.422;2024-03-06T04:17:54;5.95;87.89
83660;SHT30;73632;50.808;3.422;2024-03-06T04:20:20;5.93;87.48
83660;SHT30;73632;50.808;3.422;2024-03-06T04:22:45;5.90;87.53
83660;SHT30;73632;50.808;3.422;2024-03-06T04:25:13;5.88;87.95
83660;SHT30;73632;50.808;3.422;2024-03-06T04:27:38;5.94;88.41
83660;SHT30;73632;50.808;3.422;2024-03-06T04:30:04;5.91;88.78
83660;SHT30;73632;50.808;3.422;2024-03-06T04:32:30;5.91;89.12
83660;SHT30;73632;50.808;3.422;2024-03-06T04:34:55;5.90;89.05
83660;SHT30;73632;50.808;3.422;2024-03-06T04:37:21;5.94;89.11
83660;SHT30;73632;50.808;3.422;2024-03-06T04:39:47;5.99;89.07
83660;SHT30;73632;50.808;3.422;2024-03-06T04:42:13;6.05;88.82
83660;SHT30;73632;50.808;3.422;2024-03-06T04:44:38;6.08;89.06
83660;SHT30;73632;50.808;3.422;2024-03-06T04:47:04;6.16;88.93
83660;SHT30;73632;50.808;3.422;2024-03-06T04:49:33;6.26;88.27
83660;SHT30;73632;50.808;3.422;2024-03-06T04:51:59;6.30;88.01
83660;SHT30;73632;50.808;3.422;2024-03-06T04:54:25;6.28;88.18
83660;SHT30;73632;50.808;3.422;2024-03-06T04:56:50;6.30;88.25
83660;SHT30;73632;50.808;3.422;2024-03-06T04:59:15;6.42;87.34
83660;SHT30;73632;50.808;3.422;2024-03-06T05:01:41;6.49;86.82
83660;SHT30;73632;50.808;3.422;2024-03-06T05:04:06;6.43;87.13
83660;SHT30;73632;50.808;3.422;2024-03-06T05:06:32;6.48;87.13
83660;SHT30;73632;50.808;3.422;2024-03-06T05:08:57;6.38;87.31
83660;SHT30;73632;50.808;3.422;2024-03-06T05:11:23;6.36;87.84
83660;SHT30;73632;50.808;3.422;2024-03-06T05:13:48;6.43;87.24
83660;SHT30;73632;50.808;3.422;2024-03-06T05:16:15;6.35;87.38
83660;SHT30;73632;50.808;3.422;2024-03-06T05:18:40;6.39;87.21
83660;SHT30;73632;50.808;3.422;2024-03-06T05:21:05;6.35;87.74
83660;SHT30;73632;50.808;3.422;2024-03-06T05:23:31;6.30;87.66
83660;SHT30;73632;50.808;3.422;2024-03-06T05:25:56;6.29;87.85
83660;SHT30;73632;50.808;3.422;2024-03-06T05:28:22;6.15;87.94
83660;SHT30;73632;50.808;3.422;2024-03-06T05:30:47;6.09;88.30
83660;SHT30;73632;50.808;3.422;2024-03-06T05:33:13;6.08;88.66
83660;SHT30;73632;50.808;3.422;2024-03-06T05:35:38;6.25;87.38
83660;SHT30;73632;50.808;3.422;2024-03-06T05:38:04;6.19;87.29
83660;SHT30;73632;50.808;3.422;2024-03-06T05:40:29;6.11;87.93
83660;SHT30;73632;50.808;3.422;2024-03-06T05:43:00;6.15;87.91
83660;SHT30;73632;50.808;3.422;2024-03-06T05:45:25;6.18;87.71
83660;SHT30;73632;50.808;3.422;2024-03-06T05:47:50;6.21;87.75
83660;SHT30;73632;50.808;3.422;2024-03-06T05:50:17;6.25;87.53
83660;SHT30;73632;50.808;3.422;2024-03-06T05:52:43;6.22;87.55
83660;SHT30;73632;50.808;3.422;2024-03-06T05:55:09;6.19;87.84
83660;SHT30;73632;50.808;3.422;2024-03-06T05:57:34;6.29;87.49
83660;SHT30;73632;50.808;3.422;2024-03-06T06:00:00;6.21;87.66
83660;SHT30;73632;50.808;3.422;2024-03-06T06:02:25;6.26;87.65
83660;SHT30;73632;50.808;3.422;2024-03-06T06:04:50;6.28;87.31
83660;SHT30;73632;50.808;3.422;2024-03-06T06:07:17;6.21;87.58
83660;SHT30;73632;50.808;3.422;2024-03-06T06:09:42;6.15;87.95
83660;SHT30;73632;50.808;3.422;2024-03-06T06:12:08;6.26;87.39
83660;SHT30;73632;50.808;3.422;2024-03-06T06:14:33;6.26;87.41
83660;SHT30;73632;50.808;3.422;2024-03-06T06:16:59;6.16;87.84
83660;SHT30;73632;50.808;3.422;2024-03-06T06:19:24;6.19;87.79
83660;SHT30;73632;50.808;3.422;2024-03-06T06:21:53;6.18;87.81
83660;SHT30;73632;50.808;3.422;2024-03-06T06:24:19;6.16;88.07
83660;SHT30;73632;50.808;3.422;2024-03-06T06:26:44;6.38;87.38
83660;SHT30;73632;50.808;3.422;2024-03-06T06:29:09;6.32;87.38
83660;SHT30;73632;50.808;3.422;2024-03-06T06:31:35;6.29;87.28
83660;SHT30;73632;50.808;3.422;2024-03-06T06:34:00;6.26;87.51
83660;SHT30;73632;50.808;3.422;2024-03-06T06:36:26;6.26;87.54
83660;SHT30;73632;50.808;3.422;2024-03-06T06:38:52;6.36;87.21
83660;SHT30;73632;50.808;3.422;2024-03-06T06:41:18;6.40;87.18
83660;SHT30;73632;50.808;3.422;2024-03-06T06:43:44;6.50;86.86
83660;SHT30;73632;50.808;3.422;2024-03-06T06:46:10;6.54;86.54
83660;SHT30;73632;50.808;3.422;2024-03-06T06:48:35;6.69;86.41
83660;SHT30;73632;50.808;3.422;2024-03-06T06:51:01;6.84;86.63
83660;SHT30;73632;50.808;3.422;2024-03-06T06:53:30;7.28;84.27
83660;SHT30;73632;50.808;3.422;2024-03-06T06:55:56;7.51;83.57
83660;SHT30;73632;50.808;3.422;2024-03-06T06:58:22;7.57;83.03
83660;SHT30;73632;50.808;3.422;2024-03-06T07:00:48;7.68;82.63
83660;SHT30;73632;50.808;3.422;2024-03-06T07:03:13;7.67;82.44
83660;SHT30;73632;50.808;3.422;2024-03-06T07:05:39;7.67;83.17
83660;SHT30;73632;50.808;3.422;2024-03-06T07:08:07;7.74;82.57
83660;SHT30;73632;50.808;3.422;2024-03-06T07:10:33;7.58;82.78
83660;SHT30;73632;50.808;3.422;2024-03-06T07:13:00;7.62;82.94
83660;SHT30;73632;50.808;3.422;2024-03-06T07:15:25;7.77;82.55
83660;SHT30;73632;50.808;3.422;2024-03-06T07:17:50;8.10;81.71
83660;SHT30;73632;50.808;3.422;2024-03-06T07:20:16;8.28;80.71
83660;SHT30;73632;50.808;3.422;2024-03-06T07:22:42;8.49;80.12
83660;SHT30;73632;50.808;3.422;2024-03-06T07:25:07;8.73;78.75
83660;SHT30;73632;50.808;3.422;2024-03-06T07:27:33;9.19;77.16
83660;SHT30;73632;50.808;3.422;2024-03-06T07:29:58;9.63;75.89
83660;SHT30;73632;50.808;3.422;2024-03-06T07:32:24;10.09;74.28
83660;SHT30;73632;50.808;3.422;2024-03-06T07:34:50;10.32;73.49
83660;SHT30;73632;50.808;3.422;2024-03-06T07:37:15;10.51;73.14
83660;SHT30;73632;50.808;3.422;2024-03-06T07:39:41;10.81;71.47
83660;SHT30;73632;50.808;3.422;2024-03-06T07:42:06;10.78;71.35
83660;SHT30;73632;50.808;3.422;2024-03-06T07:44:32;10.94;71.11
83660;SHT30;73632;50.808;3.422;2024-03-06T07:46:57;11.28;70.74
83660;SHT30;73632;50.808;3.422;2024-03-06T07:49:22;11.22;69.61
83660;SHT30;73632;50.808;3.422;2024-03-06T07:51:48;11.76;67.98
83660;SHT30;73632;50.808;3.422;2024-03-06T07:54:13;12.24;67.46
83660;SHT30;73632;50.808;3.422;2024-03-06T07:56:39;12.47;66.71
83660;SHT30;73632;50.808;3.422;2024-03-06T07:59:04;12.64;65.05
83660;SHT30;73632;50.808;3.422;2024-03-06T08:01:32;13.29;64.04
83660;SHT30;73632;50.808;3.422;2024-03-06T08:03:58;13.59;63.09
83660;SHT30;73632;50.808;3.422;2024-03-06T08:06:23;13.77;61.99
83660;SHT30;73632;50.808;3.422;2024-03-06T08:08:50;13.73;62.37
83660;SHT30;73632;50.808;3.422;2024-03-06T08:11:17;12.96;64.09
83660;SHT30;73632;50.808;3.422;2024-03-06T08:13:43;11.82;66.96
83660;SHT30;73632;50.808;3.422;2024-03-06T08:16:08;10.99;70.20
83660;SHT30;73632;50.808;3.422;2024-03-06T08:18:34;10.47;71.66
83660;SHT30;73632;50.808;3.422;2024-03-06T08:21:01;10.50;72.36
83660;SHT30;73632;50.808;3.422;2024-03-06T08:23:28;10.67;72.61
83660;SHT30;73632;50.808;3.422;2024-03-06T08:25:54;10.74;72.11
83660;SHT30;73632;50.808;3.422;2024-03-06T08:28:19;10.58;72.36
83660;SHT30;73632;50.808;3.422;2024-03-06T08:30:44;10.36;73.13
83660;SHT30;73632;50.808;3.422;2024-03-06T08:33:11;10.37;73.62
83660;SHT30;73632;50.808;3.422;2024-03-06T08:35:36;10.61;72.83
83660;SHT30;73632;50.808;3.422;2024-03-06T08:38:02;10.81;72.26
83660;SHT30;73632;50.808;3.422;2024-03-06T08:40:27;11.16;71.72
83660;SHT30;73632;50.808;3.422;2024-03-06T08:42:54;11.33;70.82
83660;SHT30;73632;50.808;3.422;2024-03-06T08:45:19;11.19;71.39
83660;SHT30;73632;50.808;3.422;2024-03-06T08:47:46;11.29;71.65
83660;SHT30;73632;50.808;3.422;2024-03-06T08:50:12;11.62;72.16
83660;SHT30;73632;50.808;3.422;2024-03-06T08:52:38;12.71;67.77
83660;SHT30;73632;50.808;3.422;2024-03-06T08:55:04;13.39;65.61
83660;SHT30;73632;50.808;3.422;2024-03-06T08:57:31;13.42;65.87
83660;SHT30;73632;50.808;3.422;2024-03-06T08:59:57;14.25;65.37
83660;SHT30;73632;50.808;3.422;2024-03-06T09:02:23;14.34;62.90
83660;SHT30;73632;50.808;3.422;2024-03-06T09:04:48;14.61;62.84
83660;SHT30;73632;50.808;3.422;2024-03-06T09:07:14;14.57;60.51
83660;SHT30;73632;50.808;3.422;2024-03-06T09:09:40;14.39;61.90
83660;SHT30;73632;50.808;3.422;2024-03-06T09:12:06;14.57;62.06
83660;SHT30;73632;50.808;3.422;2024-03-06T09:14:32;15.03;60.90
83660;SHT30;73632;50.808;3.422;2024-03-06T09:16:58;15.09;60.28
83660;SHT30;73632;50.808;3.422;2024-03-06T09:19:24;15.15;59.60
83660;SHT30;73632;50.808;3.422;2024-03-06T09:21:49;14.78;60.56
83660;SHT30;73632;50.808;3.422;2024-03-06T09:24:15;14.54;60.89
83660;SHT30;73632;50.808;3.422;2024-03-06T09:26:40;14.49;61.56
83660;SHT30;73632;50.808;3.422;2024-03-06T09:29:06;14.54;62.27
83660;SHT30;73632;50.808;3.422;2024-03-06T09:31:31;14.31;62.18
83660;SHT30;73632;50.808;3.422;2024-03-06T09:33:56;14.42;62.33
83660;SHT30;73632;50.808;3.422;2024-03-06T09:36:23;14.25;63.04
83660;SHT30;73632;50.808;3.422;2024-03-06T09:38:48;14.45;62.96
83660;SHT30;73632;50.808;3.422;2024-03-06T09:41:14;14.16;62.71
83660;SHT30;73632;50.808;3.422;2024-03-06T09:43:39;14.32;62.60
83660;SHT30;73632;50.808;3.422;2024-03-06T09:46:06;14.59;61.32
83660;SHT30;73632;50.808;3.422;2024-03-06T09:48:33;14.61;61.18
83660;SHT30;73632;50.808;3.422;2024-03-06T09:51:02;15.29;60.66
83660;SHT30;73632;50.808;3.422;2024-03-06T09:53:28;14.99;59.96
83660;SHT30;73632;50.808;3.422;2024-03-06T09:55:56;14.44;60.30
83660;SHT30;73632;50.808;3.422;2024-03-06T09:58:22;13.70;63.52
83660;SHT30;73632;50.808;3.422;2024-03-06T10:00:49;14.03;63.09
83660;SHT30;73632;50.808;3.422;2024-03-06T10:03:15;14.46;62.34
83660;SHT30;73632;50.808;3.422;2024-03-06T10:05:41;15.09;59.66
83660;SHT30;73632;50.808;3.422;2024-03-06T10:08:08;15.26;58.70
83660;SHT30;73632;50.808;3.422;2024-03-06T10:10:35;15.78;57.40
83660;SHT30;73632;50.808;3.422;2024-03-06T10:13:00;15.96;55.21
83660;SHT30;73632;50.808;3.422;2024-03-06T10:15:26;16.62;54.17
83660;SHT30;73632;50.808;3.422;2024-03-06T10:18:14;17.24;52.83
83660;SHT30;73632;50.808;3.422;2024-03-06T10:20:41;17.00;53.28
83660;SHT30;73632;50.808;3.422;2024-03-06T10:23:10;15.29;58.04
83660;SHT30;73632;50.808;3.422;2024-03-06T10:25:35;15.16;60.40
83660;SHT30;73632;50.808;3.422;2024-03-06T10:28:11;16.01;56.16
83660;SHT30;73632;50.808;3.422;2024-03-06T10:30:39;15.71;56.89
83660;SHT30;73632;50.808;3.422;2024-03-06T10:33:08;14.62;59.59
83660;SHT30;73632;50.808;3.422;2024-03-06T10:35:35;14.37;60.26
83660;SHT30;73632;50.808;3.422;2024-03-06T10:38:08;14.38;61.62
83660;SHT30;73632;50.808;3.422;2024-03-06T10:40:35;13.53;61.32
83660;SHT30;73632;50.808;3.422;2024-03-06T10:43:02;12.68;64.70
83660;SHT30;73632;50.808;3.422;2024-03-06T10:45:47;13.29;63.97
83660;SHT30;73632;50.808;3.422;2024-03-06T10:48:14;13.24;62.68
83660;SHT30;73632;50.808;3.422;2024-03-06T10:50:41;13.02;64.60
83660;SHT30;73632;50.808;3.422;2024-03-06T10:53:09;12.84;64.20
83660;SHT30;73632;50.808;3.422;2024-03-06T10:55:38;12.17;65.39
83660;SHT30;73632;50.808;3.422;2024-03-06T10:58:08;12.89;65.52
83660;SHT30;73632;50.808;3.422;2024-03-06T11:00:43;13.19;63.41
83660;SHT30;73632;50.808;3.422;2024-03-06T11:03:11;13.08;63.69
83660;SHT30;73632;50.808;3.422;2024-03-06T11:05:41;13.36;61.52
83660;SHT30;73632;50.808;3.422;2024-03-06T11:08:08;13.39;61.22
83660;SHT30;73632;50.808;3.422;2024-03-06T11:10:35;13.42;62.46
83660;SHT30;73632;50.808;3.422;2024-03-06T11:13:01;13.56;62.65
83660;SHT30;73632;50.808;3.422;2024-03-06T11:15:28;13.62;61.60
83660;SHT30;73632;50.808;3.422;2024-03-06T11:17:53;13.54;61.68
83660;SHT30;73632;50.808;3.422;2024-03-06T11:20:21;13.26;61.56
83660;SHT30;73632;50.808;3.422;2024-03-06T11:28:16;12.99;62.16
83660;SHT30;73632;50.808;3.422;2024-03-06T11:30:45;12.87;61.53
83660;SHT30;73632;50.808;3.422;2024-03-06T11:33:14;12.65;61.18
83660;SHT30;73632;50.808;3.422;2024-03-06T11:35:41;12.87;61.74
83660;SHT30;73632;50.808;3.422;2024-03-06T11:38:09;12.72;62.12
83660;SHT30;73632;50.808;3.422;2024-03-06T11:40:48;12.52;61.41
83660;SHT30;73632;50.808;3.422;2024-03-06T11:43:26;12.26;60.84
83660;SHT30;73632;50.808;3.422;2024-03-06T11:45:52;12.45;60.07
83660;SHT30;73632;50.808;3.422;2024-03-06T11:48:18;12.34;60.17
83660;SHT30;73632;50.808;3.422;2024-03-06T11:50:45;12.45;60.68
83660;SHT30;73632;50.808;3.422;2024-03-06T11:53:15;12.52;58.44
83660;SHT30;73632;50.808;3.422;2024-03-06T11:55:41;12.51;58.54
83660;SHT30;73632;50.808;3.422;2024-03-06T11:58:08;12.57;59.28
83660;SHT30;73632;50.808;3.422;2024-03-06T12:00:34;12.58;60.68
83660;SHT30;73632;50.808;3.422;2024-03-06T12:02:59;12.45;61.35
83660;SHT30;73632;50.808;3.422;2024-03-06T12:05:25;12.55;59.81
83660;SHT30;73632;50.808;3.422;2024-03-06T12:07:52;12.38;60.05
83660;SHT30;73632;50.808;3.422;2024-03-06T12:10:18;12.58;60.83
83660;SHT30;73632;50.808;3.422;2024-03-06T12:12:44;12.48;59.30
83660;SHT30;73632;50.808;3.422;2024-03-06T12:15:15;12.59;59.47
83660;SHT30;73632;50.808;3.422;2024-03-06T12:17:46;12.20;58.59
83660;SHT30;73632;50.808;3.422;2024-03-06T12:20:13;12.07;59.93
83660;SHT30;73632;50.808;3.422;2024-03-06T12:22:45;12.07;60.83
83660;SHT30;73632;50.808;3.422;2024-03-06T12:25:10;12.10;59.38
83660;SHT30;73632;50.808;3.422;2024-03-06T12:27:36;11.84;59.17
83660;SHT30;73632;50.808;3.422;2024-03-06T12:30:01;11.91;61.40
83660;SHT30;73632;50.808;3.422;2024-03-06T12:32:29;12.00;61.05
83660;SHT30;73632;50.808;3.422;2024-03-06T12:34:56;12.03;60.89
83660;SHT30;73632;50.808;3.422;2024-03-06T12:37:29;12.21;62.22
83660;SHT30;73632;50.808;3.422;2024-03-06T12:39:56;12.30;61.11
83660;SHT30;73632;50.808;3.422;2024-03-06T12:42:21;12.41;60.04
83660;SHT30;73632;50.808;3.422;2024-03-06T12:44:47;12.33;59.09
83660;SHT30;73632;50.808;3.422;2024-03-06T12:47:13;12.41;60.16
83660;SHT30;73632;50.808;3.422;2024-03-06T12:49:39;12.42;59.53
83660;SHT30;73632;50.808;3.422;2024-03-06T12:52:04;12.27;59.65
83660;SHT30;73632;50.808;3.422;2024-03-06T12:54:30;12.27;60.40
83660;SHT30;73632;50.808;3.422;2024-03-06T12:56:55;12.33;60.24
83660;SHT30;73632;50.808;3.422;2024-03-06T12:59:22;12.20;59.69
83660;SHT30;73632;50.808;3.422;2024-03-06T13:01:47;11.97;60.45
83660;SHT30;73632;50.808;3.422;2024-03-06T13:04:13;11.93;59.80
83660;SHT30;73632;50.808;3.422;2024-03-06T13:06:39;11.90;60.08
83660;SHT30;73632;50.808;3.422;2024-03-06T13:09:06;11.96;61.00
83660;SHT30;73632;50.808;3.422;2024-03-06T13:11:32;11.94;61.67
83660;SHT30;73632;50.808;3.422;2024-03-06T13:13:57;12.06;61.39
83660;SHT30;73632;50.808;3.422;2024-03-06T13:16:23;12.07;60.18
83660;SHT30;73632;50.808;3.422;2024-03-06T13:18:49;12.26;58.41
83660;SHT30;73632;50.808;3.422;2024-03-06T13:21:19;12.23;58.96
83660;SHT30;73632;50.808;3.422;2024-03-06T13:23:45;12.40;59.74
83660;SHT30;73632;50.808;3.422;2024-03-06T13:26:10;12.28;59.56
83660;SHT30;73632;50.808;3.422;2024-03-06T13:28:38;12.37;59.19
83660;SHT30;73632;50.808;3.422;2024-03-06T13:31:04;12.44;59.04
83660;SHT30;73632;50.808;3.422;2024-03-06T13:33:31;12.44;57.56
83660;SHT30;73632;50.808;3.422;2024-03-06T13:35:57;12.52;58.83
83660;SHT30;73632;50.808;3.422;2024-03-06T13:38:22;12.42;57.03
83660;SHT30;73632;50.808;3.422;2024-03-06T13:40:48;12.45;57.48
83660;SHT30;73632;50.808;3.422;2024-03-06T13:43:13;12.38;55.52
83660;SHT30;73632;50.808;3.422;2024-03-06T13:45:48;12.47;57.06
83660;SHT30;73632;50.808;3.422;2024-03-06T13:48:14;12.42;56.84
83660;SHT30;73632;50.808;3.422;2024-03-06T13:50:43;12.44;58.07
83660;SHT30;73632;50.808;3.422;2024-03-06T13:53:10;12.37;57.52
83660;SHT30;73632;50.808;3.422;2024-03-06T13:55:35;12.44;57.09
83660;SHT30;73632;50.808;3.422;2024-03-06T13:58:01;12.45;56.73
83660;SHT30;73632;50.808;3.422;2024-03-06T14:00:27;12.47;56.07
83660;SHT30;73632;50.808;3.422;2024-03-06T14:02:52;12.57;55.81
83660;SHT30;73632;50.808;3.422;2024-03-06T14:05:18;12.61;55.01
83660;SHT30;73632;50.808;3.422;2024-03-06T14:07:45;12.58;57.13
83660;SHT30;73632;50.808;3.422;2024-03-06T14:10:10;12.68;57.29
83660;SHT30;73632;50.808;3.422;2024-03-06T14:12:38;12.87;55.85
83660;SHT30;73632;50.808;3.422;2024-03-06T14:15:08;12.87;55.45
83660;SHT30;73632;50.808;3.422;2024-03-06T14:17:41;12.72;54.06
83660;SHT30;73632;50.808;3.422;2024-03-06T14:20:07;12.51;55.20
83660;SHT30;73632;50.808;3.422;2024-03-06T14:22:33;12.33;55.47
83660;SHT30;73632;50.808;3.422;2024-03-06T14:24:58;12.03;56.82
83660;SHT30;73632;50.808;3.422;2024-03-06T14:27:24;11.80;57.77
83660;SHT30;73632;50.808;3.422;2024-03-06T14:29:49;11.82;59.46
83660;SHT30;73632;50.808;3.422;2024-03-06T14:32:18;11.86;60.53
83660;SHT30;73632;50.808;3.422;2024-03-06T14:34:44;11.89;59.24
83660;SHT30;73632;50.808;3.422;2024-03-06T14:37:10;11.93;59.64
83660;SHT30;73632;50.808;3.422;2024-03-06T14:39:35;11.86;58.84
83660;SHT30;73632;50.808;3.422;2024-03-06T14:42:01;11.80;59.15
83660;SHT30;73632;50.808;3.422;2024-03-06T14:44:26;11.72;59.29
83660;SHT30;73632;50.808;3.422;2024-03-06T14:46:52;11.72;59.76
83660;SHT30;73632;50.808;3.422;2024-03-06T14:49:17;11.69;59.14
83660;SHT30;73632;50.808;3.422;2024-03-06T14:51:43;11.80;59.83
83660;SHT30;73632;50.808;3.422;2024-03-06T14:54:08;11.82;59.37
83660;SHT30;73632;50.808;3.422;2024-03-06T14:56:34;11.80;59.52
83660;SHT30;73632;50.808;3.422;2024-03-06T14:58:59;11.84;60.03
83660;SHT30;73632;50.808;3.422;2024-03-06T15:01:25;11.76;60.92
83660;SHT30;73632;50.808;3.422;2024-03-06T15:03:54;11.79;60.86
83660;SHT30;73632;50.808;3.422;2024-03-06T15:06:20;11.74;61.00
83660;SHT30;73632;50.808;3.422;2024-03-06T15:08:45;11.62;61.79
83660;SHT30;73632;50.808;3.422;2024-03-06T15:11:11;11.51;62.32
83660;SHT30;73632;50.808;3.422;2024-03-06T15:13:37;11.47;62.00
83660;SHT30;73632;50.808;3.422;2024-03-06T15:16:02;11.44;61.17
83660;SHT30;73632;50.808;3.422;2024-03-06T15:18:31;11.35;61.10
83660;SHT30;73632;50.808;3.422;2024-03-06T15:20:58;11.26;61.24
83660;SHT30;73632;50.808;3.422;2024-03-06T15:23:23;11.36;61.14
83660;SHT30;73632;50.808;3.422;2024-03-06T15:25:49;11.23;61.64
83660;SHT30;73632;50.808;3.422;2024-03-06T15:28:14;11.12;62.63
83660;SHT30;73632;50.808;3.422;2024-03-06T15:30:40;11.11;61.14
83660;SHT30;73632;50.808;3.422;2024-03-06T15:33:05;11.11;60.29
83660;SHT30;73632;50.808;3.422;2024-03-06T15:35:32;11.08;60.68
83660;SHT30;73632;50.808;3.422;2024-03-06T15:37:57;11.19;60.60